createdAt,value
2023-05-29T00:00:31.973Z,1896.00
2023-05-29T00:01:32.021Z,1888.00
2023-05-29T00:02:32.124Z,1880.00
2023-05-29T00:03:32.194Z,1886.00
2023-05-29T00:04:32.176Z,1894.00
2023-05-29T00:05:32.178Z,1894.00
2023-05-29T00:06:32.216Z,1888.00
2023-05-29T00:07:32.246Z,1893.00
2023-05-29T00:08:32.298Z,1883.00
2023-05-29T00:09:32.322Z,1896.00
2023-05-29T00:10:32.357Z,1874.00
2023-05-29T00:11:32.406Z,1885.00
2023-05-29T00:12:32.368Z,1886.00
2023-05-29T00:13:32.413Z,1886.00
2023-05-29T00:14:32.344Z,1890.00
2023-05-29T00:15:32.300Z,1887.00
2023-05-29T00:16:32.341Z,1871.00
2023-05-29T00:17:32.294Z,1890.00
2023-05-29T00:18:32.265Z,1883.00
2023-05-29T00:19:32.234Z,1894.00
2023-05-29T00:20:32.240Z,1898.00
2023-05-29T00:21:32.178Z,1888.00
2023-05-29T00:22:32.159Z,1866.00
2023-05-29T00:23:32.176Z,1873.00
2023-05-29T00:24:32.227Z,1888.00
2023-05-29T00:25:32.243Z,1892.00
2023-05-29T00:26:32.269Z,1882.00
2023-05-29T00:27:32.314Z,1872.00
2023-05-29T00:28:32.360Z,1893.00
2023-05-29T00:29:32.389Z,1868.00
2023-05-29T00:30:32.421Z,1857.00
2023-05-29T00:31:32.529Z,1880.00
2023-05-29T00:32:32.560Z,1870.00
2023-05-29T00:33:32.583Z,1879.00
2023-05-29T00:34:32.579Z,1855.00
2023-05-29T00:35:32.624Z,1865.00
2023-05-29T00:36:32.659Z,1857.00
2023-05-29T00:37:32.757Z,1852.00
2023-05-29T00:38:32.687Z,1853.00
2023-05-29T00:39:32.687Z,1855.00
2023-05-29T00:40:32.662Z,1858.00
2023-05-29T00:41:32.652Z,1856.00
2023-05-29T00:42:32.614Z,1860.00
2023-05-29T00:43:32.637Z,1875.00
2023-05-29T00:44:32.590Z,1856.00
2023-05-29T00:45:32.587Z,1853.00
2023-05-29T00:46:32.697Z,1864.00
2023-05-29T00:47:32.587Z,1866.00
2023-05-29T00:48:32.555Z,1859.00
2023-05-29T00:49:32.557Z,1861.00
2023-05-29T00:50:32.572Z,1862.00
2023-05-29T00:51:32.627Z,1852.00
2023-05-29T00:52:32.681Z,1856.00
2023-05-29T00:53:32.722Z,1842.00
2023-05-29T00:54:32.763Z,1850.00
2023-05-29T00:55:32.814Z,1848.00
2023-05-29T00:56:32.850Z,1849.00
2023-05-29T00:57:32.884Z,1855.00
2023-05-29T00:58:32.932Z,1833.00
2023-05-29T00:59:33.000Z,1829.00
2023-05-29T01:00:33.024Z,1839.00
2023-05-29T01:01:33.015Z,1839.00
2023-05-29T01:02:33.093Z,1843.00
2023-05-29T01:03:33.031Z,1844.00
2023-05-29T01:04:32.935Z,1847.00
2023-05-29T01:05:32.929Z,1838.00
2023-05-29T01:06:32.901Z,1834.00
2023-05-29T01:07:32.896Z,1841.00
2023-05-29T01:08:32.870Z,1832.00
2023-05-29T01:09:32.841Z,1832.00
2023-05-29T01:10:32.838Z,1833.00
2023-05-29T01:11:32.805Z,1834.00
2023-05-29T01:12:32.801Z,1839.00
2023-05-29T01:13:32.776Z,1843.00
2023-05-29T01:14:32.788Z,1835.00
2023-05-29T01:15:32.765Z,1830.00
2023-05-29T01:16:32.778Z,1830.00
2023-05-29T01:17:32.715Z,1838.00
2023-05-29T01:18:32.704Z,1845.00
2023-05-29T01:19:32.674Z,1846.00
2023-05-29T01:20:32.665Z,1831.00
2023-05-29T01:21:32.706Z,1819.00
2023-05-29T01:22:32.747Z,1831.00
2023-05-29T01:23:32.797Z,1826.00
2023-05-29T01:24:32.856Z,1826.00
2023-05-29T01:25:32.901Z,1832.00
2023-05-29T01:26:32.961Z,1822.00
2023-05-29T01:27:32.993Z,1824.00
2023-05-29T01:28:33.046Z,1824.00
2023-05-29T01:29:33.045Z,1815.00
2023-05-29T01:30:33.089Z,1822.00
2023-05-29T01:31:33.156Z,1818.00
2023-05-29T01:32:33.204Z,1829.00
2023-05-29T01:33:33.215Z,1824.00
2023-05-29T01:34:33.248Z,1828.00
2023-05-29T01:35:33.301Z,1815.00
2023-05-29T01:36:33.330Z,1805.00
2023-05-29T01:37:33.425Z,1805.00
2023-05-29T01:38:33.399Z,1807.00
2023-05-29T01:39:33.371Z,1807.00
2023-05-29T01:40:33.325Z,1809.00
2023-05-29T01:41:33.297Z,1815.00
2023-05-29T01:42:33.272Z,1808.00
2023-05-29T01:43:33.249Z,1810.00
2023-05-29T01:44:33.229Z,1810.00
2023-05-29T01:45:33.216Z,1812.00
2023-05-29T01:46:33.175Z,1815.00
2023-05-29T01:47:33.169Z,1810.00
2023-05-29T01:48:33.136Z,1807.00
2023-05-29T01:49:33.111Z,1810.00
2023-05-29T01:50:33.089Z,1806.00
2023-05-29T01:51:33.071Z,1806.00
2023-05-29T01:52:33.061Z,1797.00
2023-05-29T01:53:33.052Z,1794.00
2023-05-29T01:54:33.086Z,1812.00
2023-05-29T01:55:33.146Z,1809.00
2023-05-29T01:56:33.122Z,1810.00
2023-05-29T01:57:33.095Z,1808.00
2023-05-29T01:58:33.082Z,1802.00
2023-05-29T01:59:33.048Z,1795.00
2023-05-29T02:00:33.036Z,1800.00
2023-05-29T02:01:33.140Z,1797.00
2023-05-29T02:02:33.013Z,1819.00
2023-05-29T02:03:33.002Z,1819.00
2023-05-29T02:04:33.091Z,1820.00
2023-05-29T02:05:32.926Z,1821.00
2023-05-29T02:06:32.892Z,1820.00
2023-05-29T02:07:32.861Z,1820.00
2023-05-29T02:08:32.856Z,1822.00
2023-05-29T02:09:32.824Z,1812.00
2023-05-29T02:10:32.827Z,1819.00
2023-05-29T02:11:32.803Z,1816.00
2023-05-29T02:12:32.769Z,1812.00
2023-05-29T02:13:32.763Z,1808.00
2023-05-29T02:14:32.734Z,1810.00
2023-05-29T02:15:32.712Z,1815.00
2023-05-29T02:16:32.737Z,1802.00
2023-05-29T02:17:32.751Z,1803.00
2023-05-29T02:18:32.804Z,1774.00
2023-05-29T02:19:32.844Z,1797.00
2023-05-29T02:20:32.960Z,1783.00
2023-05-29T02:21:32.960Z,1781.00
2023-05-29T02:22:33.004Z,1776.00
2023-05-29T02:23:33.055Z,1772.00
2023-05-29T02:24:33.029Z,1773.00
2023-05-29T02:25:33.027Z,1776.00
2023-05-29T02:26:33.002Z,1779.00
2023-05-29T02:27:33.090Z,1781.00
2023-05-29T02:28:32.975Z,1782.00
2023-05-29T02:29:32.965Z,1769.00
2023-05-29T02:30:32.953Z,1781.00
2023-05-29T02:31:32.950Z,1766.00
2023-05-29T02:32:32.933Z,1763.00
2023-05-29T02:33:32.908Z,1759.00
2023-05-29T02:34:32.935Z,1764.00
2023-05-29T02:35:32.980Z,1766.00
2023-05-29T02:36:33.023Z,1763.00
2023-05-29T02:37:33.082Z,1763.00
2023-05-29T02:38:33.113Z,1770.00
2023-05-29T02:39:33.161Z,1761.00
2023-05-29T02:40:33.206Z,1749.00
2023-05-29T02:41:33.253Z,1755.00
2023-05-29T02:42:33.289Z,1754.00
2023-05-29T02:43:33.511Z,1734.00
2023-05-29T02:44:33.382Z,1744.00
2023-05-29T02:45:33.433Z,1751.00
2023-05-29T02:46:33.563Z,1748.00
2023-05-29T02:47:33.569Z,1761.00
2023-05-29T02:48:33.592Z,1753.00
2023-05-29T02:49:33.629Z,1755.00
2023-05-29T02:50:33.679Z,1749.00
2023-05-29T02:51:33.718Z,1742.00
2023-05-29T02:52:33.777Z,1733.00
2023-05-29T02:53:33.869Z,1732.00
2023-05-29T02:54:33.868Z,1740.00
2023-05-29T02:55:33.920Z,1748.00
2023-05-29T02:56:33.989Z,1734.00
2023-05-29T02:57:34.018Z,1739.00
2023-05-29T02:58:34.117Z,1730.00
2023-05-29T02:59:34.113Z,1751.00
2023-05-29T03:00:34.174Z,1728.00
2023-05-29T03:01:34.370Z,1717.00
2023-05-29T03:02:34.370Z,1711.00
2023-05-29T03:03:34.493Z,1618.00
2023-05-29T03:04:34.372Z,1554.00
2023-05-29T03:05:34.423Z,1497.00
2023-05-29T03:06:34.474Z,1433.00
2023-05-29T03:07:34.507Z,1416.00
2023-05-29T03:08:34.563Z,1348.00
2023-05-29T03:09:34.600Z,1296.00
2023-05-29T03:10:34.609Z,1218.00
2023-05-29T03:11:34.604Z,1174.00
2023-05-29T03:12:34.600Z,1122.00
2023-05-29T03:13:34.610Z,1083.00
2023-05-29T03:14:34.603Z,1036.00
2023-05-29T03:15:34.592Z,983.00
2023-05-29T03:16:34.691Z,952.00
2023-05-29T03:17:34.685Z,915.00
2023-05-29T03:18:34.595Z,877.00
2023-05-29T03:19:34.595Z,845.00
2023-05-29T03:20:34.739Z,804.00
2023-05-29T03:21:34.598Z,769.00
2023-05-29T03:22:34.617Z,751.00
2023-05-29T03:23:34.616Z,726.00
2023-05-29T03:24:34.625Z,692.00
2023-05-29T03:25:34.636Z,672.00
2023-05-29T03:26:34.658Z,661.00
2023-05-29T03:27:34.680Z,651.00
2023-05-29T03:28:34.712Z,644.00
2023-05-29T03:29:34.729Z,642.00
2023-05-29T03:30:34.750Z,642.00
2023-05-29T03:31:34.852Z,642.00
2023-05-29T03:32:34.820Z,637.00
2023-05-29T03:33:34.818Z,633.00
2023-05-29T03:34:34.869Z,629.00
2023-05-29T03:35:34.886Z,629.00
2023-05-29T03:36:34.903Z,625.00
2023-05-29T03:37:34.933Z,618.00
2023-05-29T03:38:34.972Z,620.00
2023-05-29T03:39:35.031Z,614.00
2023-05-29T03:40:35.037Z,617.00
2023-05-29T03:41:35.074Z,611.00
2023-05-29T03:42:35.109Z,609.00
2023-05-29T03:43:35.149Z,609.00
2023-05-29T03:44:35.185Z,609.00
2023-05-29T03:45:35.221Z,607.00
2023-05-29T03:46:35.321Z,606.00
2023-05-29T03:47:35.405Z,603.00
2023-05-29T03:48:35.360Z,602.00
2023-05-29T03:49:35.403Z,598.00
2023-05-29T03:50:35.454Z,591.00
2023-05-29T03:51:35.489Z,592.00
2023-05-29T03:52:35.532Z,588.00
2023-05-29T03:53:35.577Z,598.00
2023-05-29T03:54:35.630Z,604.00
2023-05-29T03:55:35.672Z,615.00
2023-05-29T03:56:35.712Z,614.00
2023-05-29T03:57:35.753Z,613.00
2023-05-29T03:58:35.816Z,613.00
2023-05-29T03:59:35.859Z,608.00
2023-05-29T04:00:35.899Z,605.00
2023-05-29T04:01:35.949Z,606.00
2023-05-29T04:02:36.102Z,607.00
2023-05-29T04:03:36.122Z,605.00
2023-05-29T04:04:36.174Z,602.00
2023-05-29T04:05:36.162Z,603.00
2023-05-29T04:06:36.219Z,592.00
2023-05-29T04:07:36.215Z,593.00
2023-05-29T04:08:36.219Z,593.00
2023-05-29T04:09:36.217Z,587.00
2023-05-29T04:10:36.213Z,576.00
2023-05-29T04:11:36.209Z,574.00
2023-05-29T04:12:36.226Z,575.00
2023-05-29T04:13:36.215Z,566.00
2023-05-29T04:14:36.204Z,562.00
2023-05-29T04:15:36.214Z,568.00
2023-05-29T04:16:36.252Z,555.00
2023-05-29T04:17:36.223Z,553.00
2023-05-29T04:18:36.281Z,555.00
2023-05-29T04:19:36.298Z,552.00
2023-05-29T04:20:36.407Z,553.00
2023-05-29T04:21:36.441Z,550.00
2023-05-29T04:22:36.509Z,552.00
2023-05-29T04:23:36.563Z,555.00
2023-05-29T04:24:36.607Z,542.00
2023-05-29T04:25:36.665Z,552.00
2023-05-29T04:26:36.728Z,550.00
2023-05-29T04:27:36.777Z,548.00
2023-05-29T04:28:36.854Z,548.00
2023-05-29T04:29:36.906Z,552.00
2023-05-29T04:30:37.035Z,550.00
2023-05-29T04:31:37.088Z,552.00
2023-05-29T04:32:37.108Z,539.00
2023-05-29T04:33:37.171Z,543.00
2023-05-29T04:34:37.236Z,550.00
2023-05-29T04:35:37.322Z,544.00
2023-05-29T04:36:37.365Z,540.00
2023-05-29T04:37:37.435Z,540.00
2023-05-29T04:38:37.507Z,535.00
2023-05-29T04:39:37.561Z,530.00
2023-05-29T04:40:37.748Z,526.00
2023-05-29T04:41:37.697Z,524.00
2023-05-29T04:42:37.769Z,525.00
2023-05-29T04:43:37.844Z,529.00
2023-05-29T04:44:37.909Z,526.00
2023-05-29T04:45:38.028Z,526.00
2023-05-29T04:46:38.098Z,530.00
2023-05-29T04:47:38.142Z,533.00
2023-05-29T04:48:38.202Z,532.00
2023-05-29T04:49:40.085Z,529.00
2023-05-29T04:50:38.326Z,538.00
2023-05-29T04:51:38.397Z,542.00
2023-05-29T04:52:38.412Z,542.00
2023-05-29T04:53:38.410Z,543.00
2023-05-29T04:54:38.424Z,546.00
2023-05-29T04:55:38.412Z,549.00
2023-05-29T04:56:38.418Z,556.00
2023-05-29T04:57:38.415Z,560.00
2023-05-29T04:58:38.427Z,564.00
2023-05-29T04:59:38.414Z,565.00
2023-05-29T05:00:38.430Z,562.00
2023-05-29T05:01:38.482Z,567.00
2023-05-29T05:02:38.507Z,563.00
2023-05-29T05:03:38.500Z,563.00
2023-05-29T05:04:38.472Z,564.00
2023-05-29T05:05:38.470Z,567.00
2023-05-29T05:06:38.475Z,571.00
2023-05-29T05:07:38.472Z,581.00
2023-05-29T05:08:38.488Z,579.00
2023-05-29T05:09:38.492Z,580.00
2023-05-29T05:10:38.519Z,573.00
2023-05-29T05:11:38.516Z,584.00
2023-05-29T05:12:38.544Z,577.00
2023-05-29T05:13:38.603Z,579.00
2023-05-29T05:14:38.673Z,584.00
2023-05-29T05:15:38.763Z,581.00
2023-05-29T05:16:38.891Z,574.00
2023-05-29T05:17:38.911Z,582.00
2023-05-29T05:18:38.950Z,579.00
2023-05-29T05:19:39.018Z,579.00
2023-05-29T05:20:39.070Z,579.00
2023-05-29T05:21:39.055Z,580.00
2023-05-29T05:22:39.052Z,580.00
2023-05-29T05:24:39.061Z,582.00
2023-05-29T05:25:39.063Z,581.00
2023-05-29T05:26:39.069Z,582.00
2023-05-29T05:27:39.072Z,581.00
2023-05-29T05:28:39.074Z,575.00
2023-05-29T05:29:39.077Z,580.00
2023-05-29T05:30:39.095Z,581.00
2023-05-29T05:31:39.122Z,582.00
2023-05-29T05:32:39.117Z,577.00
2023-05-29T05:33:39.133Z,576.00
2023-05-29T05:34:39.178Z,577.00
2023-05-29T05:35:39.121Z,574.00
2023-05-29T05:36:39.126Z,575.00
2023-05-29T05:37:39.138Z,572.00
2023-05-29T05:38:39.152Z,569.00
2023-05-29T05:39:39.277Z,565.00
2023-05-29T05:40:39.170Z,571.00
2023-05-29T05:41:39.151Z,572.00
2023-05-29T05:42:39.170Z,578.00
2023-05-29T05:43:39.169Z,574.00
2023-05-29T05:44:39.319Z,579.00
2023-05-29T05:45:39.209Z,579.00
2023-05-29T05:46:39.276Z,573.00
2023-05-29T05:47:39.220Z,576.00
2023-05-29T05:48:39.217Z,577.00
2023-05-29T05:49:39.233Z,582.00
2023-05-29T05:50:39.234Z,575.00
2023-05-29T05:51:39.238Z,586.00
2023-05-29T05:52:39.232Z,586.00
2023-05-29T05:53:39.239Z,587.00
2023-05-29T05:54:39.241Z,582.00
2023-05-29T05:55:39.255Z,581.00
2023-05-29T05:56:39.263Z,582.00
2023-05-29T05:57:39.263Z,581.00
2023-05-29T05:58:39.275Z,573.00
2023-05-29T05:59:39.267Z,567.00
2023-05-29T06:00:39.266Z,563.00
2023-05-29T06:01:39.270Z,560.00
2023-05-29T06:02:39.366Z,555.00
2023-05-29T06:03:39.437Z,553.00
2023-05-29T06:04:39.416Z,553.00
2023-05-29T06:05:39.378Z,544.00
2023-05-29T06:06:39.443Z,544.00
2023-05-29T06:07:39.526Z,548.00
2023-05-29T06:08:39.586Z,541.00
2023-05-29T06:09:39.664Z,537.00
2023-05-29T06:10:39.706Z,540.00
2023-05-29T06:11:39.792Z,540.00
2023-05-29T06:12:39.866Z,535.00
2023-05-29T06:13:39.951Z,535.00
2023-05-29T06:14:40.009Z,543.00
2023-05-29T06:15:40.073Z,573.00
2023-05-29T06:16:40.124Z,566.00
2023-05-29T06:17:40.211Z,574.00
2023-05-29T06:18:40.262Z,580.00
2023-05-29T06:19:40.321Z,602.00
2023-05-29T06:20:40.401Z,614.00
2023-05-29T06:21:40.427Z,615.00
2023-05-29T06:22:40.479Z,620.00
2023-05-29T06:23:40.543Z,630.00
2023-05-29T06:24:40.577Z,635.00
2023-05-29T06:25:40.617Z,643.00
2023-05-29T06:26:40.718Z,649.00
2023-05-29T06:27:40.679Z,651.00
2023-05-29T06:28:40.724Z,659.00
2023-05-29T06:29:40.760Z,664.00
2023-05-29T06:30:40.797Z,671.00
2023-05-29T06:31:40.865Z,679.00
2023-05-29T06:32:40.875Z,692.00
2023-05-29T06:33:40.901Z,707.00
2023-05-29T06:34:40.897Z,709.00
2023-05-29T06:35:40.978Z,725.00
2023-05-29T06:36:40.947Z,736.00
2023-05-29T06:37:40.961Z,753.00
2023-05-29T06:38:40.997Z,756.00
2023-05-29T06:39:41.000Z,917.00
2023-05-29T06:40:41.026Z,1383.00
2023-05-29T06:41:41.047Z,1226.00
2023-05-29T06:42:41.087Z,1452.00
2023-05-29T06:43:42.846Z,1697.00
2023-05-29T06:44:41.089Z,1730.00
2023-05-29T06:45:41.065Z,1735.00
2023-05-29T06:46:41.078Z,1802.00
2023-05-29T06:47:41.057Z,1897.00
2023-05-29T06:48:41.049Z,1959.00
2023-05-29T06:49:41.024Z,2027.00
2023-05-29T06:50:41.034Z,2029.00
2023-05-29T06:51:41.017Z,2063.00
2023-05-29T06:52:41.019Z,2115.00
2023-05-29T06:53:41.018Z,2096.00
2023-05-29T06:54:41.006Z,2030.00
2023-05-29T06:55:42.456Z,2094.00
2023-05-29T06:56:41.010Z,2063.00
2023-05-29T06:57:41.012Z,2094.00
2023-05-29T06:58:41.135Z,2057.00
2023-05-29T06:59:41.049Z,1979.00
2023-05-29T07:00:41.086Z,2035.00
2023-05-29T07:01:41.099Z,1930.00
2023-05-29T07:02:41.081Z,1875.00
2023-05-29T07:03:41.107Z,1864.00
2023-05-29T07:04:41.055Z,1914.00
2023-05-29T07:05:41.048Z,1838.00
2023-05-29T07:06:41.047Z,1736.00
2023-05-29T07:07:41.012Z,1736.00
2023-05-29T07:08:41.003Z,1661.00
2023-05-29T07:09:41.005Z,1662.00
2023-05-29T07:10:41.005Z,1659.00
2023-05-29T07:11:40.968Z,1650.00
2023-05-29T07:12:40.962Z,1602.00
2023-05-29T07:13:40.940Z,1531.00
2023-05-29T07:14:40.928Z,1234.00
2023-05-29T07:15:40.912Z,935.00
2023-05-29T07:16:40.936Z,716.00
2023-05-29T07:17:40.946Z,609.00
2023-05-29T07:18:40.878Z,539.00
2023-05-29T07:19:40.851Z,497.00
2023-05-29T07:20:40.878Z,496.00
2023-05-29T07:21:40.836Z,499.00
2023-05-29T07:22:40.895Z,501.00
2023-05-29T07:23:40.831Z,501.00
2023-05-29T07:24:40.827Z,500.00
2023-05-29T07:25:40.826Z,500.00
2023-05-29T07:26:40.822Z,500.00
2023-05-29T07:27:40.831Z,500.00
2023-05-29T07:28:40.823Z,500.00
2023-05-29T07:29:40.820Z,500.00
2023-05-29T07:30:40.828Z,500.00
2023-05-29T07:31:40.867Z,500.00
2023-05-29T07:32:40.916Z,500.00
2023-05-29T07:33:40.818Z,500.00
2023-05-29T07:34:40.811Z,498.00
2023-05-29T07:35:40.827Z,500.00
2023-05-29T07:36:40.820Z,499.00
2023-05-29T07:37:40.836Z,500.00
2023-05-29T07:38:40.811Z,501.00
2023-05-29T07:39:40.829Z,503.00
2023-05-29T07:40:42.490Z,502.00
2023-05-29T07:41:41.812Z,498.00
2023-05-29T07:42:40.808Z,482.00
2023-05-29T07:43:40.817Z,471.00
2023-05-29T07:44:40.812Z,455.00
2023-05-29T07:45:40.821Z,446.00
2023-05-29T07:46:40.844Z,484.00
2023-05-29T07:47:40.900Z,502.00
2023-05-29T07:48:40.813Z,501.00
2023-05-29T07:49:40.801Z,500.00
2023-05-29T07:50:40.797Z,500.00
2023-05-29T07:51:40.811Z,500.00
2023-05-29T07:52:40.791Z,500.00
2023-05-29T07:53:40.800Z,500.00
2023-05-29T07:54:40.816Z,500.00
2023-05-29T07:55:40.806Z,500.00
2023-05-29T07:56:40.777Z,504.00
2023-05-29T07:57:40.773Z,500.00
2023-05-29T07:58:40.775Z,502.00
2023-05-29T07:59:40.764Z,501.00
2023-05-29T08:00:40.761Z,500.00
2023-05-29T08:01:40.773Z,502.00
2023-05-29T08:02:40.837Z,502.00
2023-05-29T08:03:40.889Z,497.00
2023-05-29T08:04:40.731Z,482.00
2023-05-29T08:05:40.731Z,471.00
2023-05-29T08:06:40.709Z,473.00
2023-05-29T08:07:40.703Z,500.00
2023-05-29T08:08:40.690Z,500.00
2023-05-29T08:09:40.688Z,500.00
2023-05-29T08:10:40.679Z,500.00
2023-05-29T08:11:40.681Z,500.00
2023-05-29T08:12:40.664Z,501.00
2023-05-29T08:13:40.663Z,505.00
2023-05-29T08:14:40.659Z,512.00
2023-05-29T08:15:40.635Z,513.00
2023-05-29T08:16:40.690Z,519.00
2023-05-29T08:17:40.875Z,521.00
2023-05-29T08:18:40.610Z,509.00
2023-05-29T08:19:40.651Z,510.00
2023-05-29T08:20:40.616Z,506.00
2023-05-29T08:21:40.583Z,500.00
2023-05-29T08:22:40.576Z,521.00
2023-05-29T08:23:40.579Z,526.00
2023-05-29T08:24:40.547Z,521.00
2023-05-29T08:25:40.549Z,527.00
2023-05-29T08:26:40.544Z,535.00
2023-05-29T08:27:40.543Z,520.00
2023-05-29T08:28:42.630Z,501.00
2023-05-29T08:29:40.568Z,500.00
2023-05-29T08:30:40.565Z,500.00
2023-05-29T08:31:40.648Z,500.00
2023-05-29T08:32:40.617Z,506.00
2023-05-29T08:33:40.563Z,512.00
2023-05-29T08:34:40.567Z,513.00
2023-05-29T08:35:40.558Z,506.00
2023-05-29T08:36:40.542Z,500.00
2023-05-29T08:37:40.540Z,516.00
2023-05-29T08:38:40.546Z,504.00
2023-05-29T08:39:40.534Z,515.00
2023-05-29T08:40:40.551Z,514.00
2023-05-29T08:41:40.515Z,540.00
2023-05-29T08:42:40.536Z,528.00
2023-05-29T08:43:40.553Z,525.00
2023-05-29T08:44:40.551Z,513.00
2023-05-29T08:45:40.579Z,504.00
2023-05-29T08:46:40.525Z,500.00
2023-05-29T08:47:40.573Z,502.00
2023-05-29T08:48:40.527Z,509.00
2023-05-29T08:49:40.523Z,514.00
2023-05-29T08:50:40.528Z,511.00
2023-05-29T08:51:40.565Z,500.00
2023-05-29T08:52:40.566Z,513.00
2023-05-29T08:53:40.604Z,540.00
2023-05-29T08:54:40.605Z,525.00
2023-05-29T08:55:40.610Z,517.00
2023-05-29T08:56:40.634Z,532.00
2023-05-29T08:57:40.644Z,529.00
2023-05-29T08:58:40.858Z,524.00
2023-05-29T08:59:40.707Z,546.00
2023-05-29T09:00:40.713Z,557.00
2023-05-29T09:01:40.793Z,562.00
2023-05-29T09:02:40.793Z,559.00
2023-05-29T09:03:40.803Z,572.00
2023-05-29T09:04:40.835Z,572.00
2023-05-29T09:05:40.894Z,576.00
2023-05-29T09:06:40.928Z,595.00
2023-05-29T09:07:40.958Z,602.00
2023-05-29T09:08:41.013Z,726.00
2023-05-29T09:09:41.039Z,986.00
2023-05-29T09:10:41.036Z,992.00
2023-05-29T09:11:41.009Z,1026.00
2023-05-29T09:12:41.001Z,1108.00
2023-05-29T09:13:40.968Z,1260.00
2023-05-29T09:14:41.002Z,1490.00
2023-05-29T09:15:40.993Z,1552.00
2023-05-29T09:16:40.907Z,1604.00
2023-05-29T09:17:40.909Z,1627.00
2023-05-29T09:18:40.877Z,1630.00
2023-05-29T09:19:40.877Z,1681.00
2023-05-29T09:20:40.986Z,1732.00
2023-05-29T09:21:40.949Z,1753.00
2023-05-29T09:22:40.983Z,1805.00
2023-05-29T09:23:41.068Z,1834.00
2023-05-29T09:24:41.102Z,1873.00
2023-05-29T09:25:41.164Z,1918.00
2023-05-29T09:26:42.650Z,1964.00
2023-05-29T09:27:41.213Z,2027.00
2023-05-29T09:28:41.266Z,2056.00
2023-05-29T09:29:41.297Z,2105.00
2023-05-29T09:30:41.335Z,2117.00
2023-05-29T09:31:41.407Z,2169.00
2023-05-29T09:32:41.419Z,2206.00
2023-05-29T09:33:41.445Z,2260.00
2023-05-29T09:34:41.427Z,2262.00
2023-05-29T09:35:41.422Z,2271.00
2023-05-29T09:36:41.390Z,2295.00
2023-05-29T09:37:41.359Z,2354.00
2023-05-29T09:38:50.144Z,2439.00
2023-05-29T09:39:42.333Z,2268.00
2023-05-29T09:40:41.300Z,2302.00
2023-05-29T09:41:41.286Z,2363.00
2023-05-29T09:42:41.263Z,2478.00
2023-05-29T09:43:41.257Z,2614.00
2023-05-29T09:44:41.230Z,2656.00
2023-05-29T09:45:41.211Z,2687.00
2023-05-29T09:46:41.257Z,2700.00
2023-05-29T09:47:41.191Z,2733.00
2023-05-29T09:48:41.144Z,2761.00
2023-05-29T09:49:41.130Z,2793.00
2023-05-29T09:50:41.095Z,2795.00
2023-05-29T09:51:41.079Z,2801.00
2023-05-29T09:52:41.069Z,2819.00
2023-05-29T09:53:41.040Z,2798.00
2023-05-29T09:54:41.035Z,2814.00
2023-05-29T09:55:41.001Z,2849.00
2023-05-29T09:56:40.981Z,2905.00
2023-05-29T09:57:40.973Z,2992.00
2023-05-29T09:58:40.951Z,3022.00
2023-05-29T09:59:40.937Z,3045.00
2023-05-29T10:00:40.915Z,3071.00
2023-05-29T10:01:40.901Z,3083.00
2023-05-29T10:02:40.936Z,3110.00
2023-05-29T10:03:41.034Z,3109.00
2023-05-29T10:04:40.818Z,3136.00
2023-05-29T10:05:40.797Z,3149.00
2023-05-29T10:06:40.787Z,3170.00
2023-05-29T10:07:40.760Z,3173.00
2023-05-29T10:08:40.759Z,3202.00
2023-05-29T10:09:40.797Z,3205.00
2023-05-29T10:10:40.793Z,3214.00
2023-05-29T10:11:40.811Z,3229.00
2023-05-29T10:12:40.828Z,3250.00
2023-05-29T10:13:40.847Z,3278.00
2023-05-29T10:14:40.847Z,3283.00
2023-05-29T10:15:40.865Z,3275.00
2023-05-29T10:16:40.891Z,3304.00
2023-05-29T10:17:40.956Z,3306.00
2023-05-29T10:18:40.913Z,3321.00
2023-05-29T10:19:40.922Z,3343.00
2023-05-29T10:20:40.975Z,3344.00
2023-05-29T10:21:40.943Z,3357.00
2023-05-29T10:22:40.946Z,3371.00
2023-05-29T10:23:40.953Z,3374.00
2023-05-29T10:24:40.953Z,3372.00
2023-05-29T10:25:40.949Z,3396.00
2023-05-29T10:26:40.974Z,3396.00
2023-05-29T10:27:40.987Z,3395.00
2023-05-29T10:28:40.981Z,3419.00
2023-05-29T10:29:40.976Z,3415.00
2023-05-29T10:30:40.975Z,3433.00
2023-05-29T10:31:41.004Z,3449.00
2023-05-29T10:32:41.012Z,3439.00
2023-05-29T10:33:40.993Z,3453.00
2023-05-29T10:34:40.990Z,3459.00
2023-05-29T10:35:40.981Z,3468.00
2023-05-29T10:36:40.990Z,3474.00
2023-05-29T10:37:40.985Z,3477.00
2023-05-29T10:38:41.002Z,3485.00
2023-05-29T10:39:40.980Z,3484.00
2023-05-29T10:40:40.977Z,3500.00
2023-05-29T10:41:40.998Z,3506.00
2023-05-29T10:42:40.983Z,3493.00
2023-05-29T10:43:40.989Z,3503.00
2023-05-29T10:44:40.966Z,3512.00
2023-05-29T10:45:40.958Z,3513.00
2023-05-29T10:46:40.955Z,3515.00
2023-05-29T10:47:40.945Z,3520.00
2023-05-29T10:48:40.864Z,3531.00
2023-05-29T10:49:40.831Z,3551.00
2023-05-29T10:50:40.793Z,3554.00
2023-05-29T10:51:40.764Z,3558.00
2023-05-29T10:52:40.744Z,3562.00
2023-05-29T10:53:40.729Z,3551.00
2023-05-29T10:54:40.690Z,3542.00
2023-05-29T10:55:40.664Z,3549.00
2023-05-29T10:56:40.633Z,3580.00
2023-05-29T10:57:40.613Z,3563.00
2023-05-29T10:58:40.597Z,3556.00
2023-05-29T10:59:40.554Z,3574.00
2023-05-29T11:00:40.527Z,3580.00
2023-05-29T11:01:40.527Z,3571.00
2023-05-29T11:02:40.511Z,3575.00
2023-05-29T11:03:40.488Z,3554.00
2023-05-29T11:04:40.421Z,3570.00
2023-05-29T11:05:40.379Z,3576.00
2023-05-29T11:06:40.374Z,3583.00
2023-05-29T11:07:40.324Z,3584.00
2023-05-29T11:08:40.307Z,3584.00
2023-05-29T11:09:40.249Z,3585.00
2023-05-29T11:10:40.234Z,3588.00
2023-05-29T11:11:40.193Z,3595.00
2023-05-29T11:12:40.155Z,3585.00
2023-05-29T11:13:40.142Z,3590.00
2023-05-29T11:14:40.114Z,3585.00
2023-05-29T11:15:40.109Z,3591.00
2023-05-29T11:16:40.052Z,3597.00
2023-05-29T11:17:40.131Z,3607.00
2023-05-29T11:18:40.017Z,3624.00
2023-05-29T11:19:39.963Z,3616.00
2023-05-29T11:20:39.999Z,3623.00
2023-05-29T11:21:39.894Z,3605.00
2023-05-29T11:22:39.859Z,3604.00
2023-05-29T11:23:39.855Z,3589.00
2023-05-29T11:24:39.813Z,3608.00
2023-05-29T11:25:39.789Z,3609.00
2023-05-29T11:26:39.783Z,3582.00
2023-05-29T11:27:39.723Z,3589.00
2023-05-29T11:28:39.700Z,3592.00
2023-05-29T11:29:39.662Z,3603.00
2023-05-29T11:30:39.635Z,3588.00
2023-05-29T11:31:39.715Z,3594.00
2023-05-29T11:32:39.614Z,3595.00
2023-05-29T11:33:39.537Z,3596.00
2023-05-29T11:34:39.507Z,3600.00
2023-05-29T11:35:39.484Z,3590.00
2023-05-29T11:36:39.458Z,3605.00
2023-05-29T11:37:39.435Z,3603.00
2023-05-29T11:38:39.406Z,3604.00
2023-05-29T11:39:39.469Z,3602.00
2023-05-29T11:40:39.373Z,3596.00
2023-05-29T11:41:39.335Z,3602.00
2023-05-29T11:42:39.314Z,3589.00
2023-05-29T11:43:39.296Z,3594.00
2023-05-29T11:44:39.263Z,3589.00
2023-05-29T11:45:39.230Z,3589.00
2023-05-29T11:46:39.202Z,3583.00
2023-05-29T11:47:39.223Z,3605.00
2023-05-29T11:48:39.155Z,3605.00
2023-05-29T11:49:39.133Z,3599.00
2023-05-29T11:50:39.114Z,3592.00
2023-05-29T11:51:39.074Z,3584.00
2023-05-29T11:52:39.057Z,3591.00
2023-05-29T11:53:39.028Z,3589.00
2023-05-29T11:54:39.010Z,3580.00
2023-05-29T11:55:39.007Z,3581.00
2023-05-29T11:56:38.953Z,3581.00
2023-05-29T11:57:38.925Z,3578.00
2023-05-29T11:58:38.909Z,3584.00
2023-05-29T11:59:38.900Z,3597.00
2023-05-29T12:00:38.875Z,3583.00
2023-05-29T12:01:38.834Z,3594.00
2023-05-29T12:02:38.880Z,3592.00
2023-05-29T12:03:38.767Z,3564.00
2023-05-29T12:04:38.735Z,3567.00
2023-05-29T12:05:38.750Z,3572.00
2023-05-29T12:06:38.683Z,3573.00
2023-05-29T12:07:38.665Z,3574.00
2023-05-29T12:08:38.635Z,3574.00
2023-05-29T12:09:38.640Z,3577.00
2023-05-29T12:10:38.584Z,3581.00
2023-05-29T12:11:38.561Z,3571.00
2023-05-29T12:12:38.546Z,3584.00
2023-05-29T12:13:38.559Z,3574.00
2023-05-29T12:15:26.815Z,500.00
2023-05-29T12:16:26.874Z,500.00
2023-05-29T12:17:26.829Z,500.00